sensor_id;sensor_type;location;lat;lon;timestamp;P1;durP1;ratioP1;P2;durP2;ratioP2
76667;SDS011;65585;51.166;16.922;2023-12-07T00:44:53;63.78;;;32.30;;
76667;SDS011;65585;51.166;16.922;2023-12-07T00:50:49;70.15;;;32.28;;
76667;SDS011;65585;51.166;16.922;2023-12-07T00:54:09;70.45;;;33.47;;
76667;SDS011;65585;51.166;16.922;2023-12-07T01:11:12;68.40;;;30.33;;
76667;SDS011;65585;51.166;16.922;2023-12-07T01:18:34;63.35;;;30.05;;
76667;SDS011;65585;51.166;16.922;2023-12-07T01:47:21;65.55;;;29.15;;
76667;SDS011;65585;51.166;16.922;2023-12-07T02:02:43;61.78;;;29.85;;
76667;SDS011;65585;51.166;16.922;2023-12-07T02:05:10;62.75;;;29.13;;
76667;SDS011;65585;51.166;16.922;2023-12-07T02:23:40;55.78;;;26.65;;
76667;SDS011;65585;51.166;16.922;2023-12-07T02:39:10;57.67;;;26.38;;
76667;SDS011;65585;51.166;16.922;2023-12-07T02:42:18;58.30;;;26.05;;
76667;SDS011;65585;51.166;16.922;2023-12-07T02:44:44;53.85;;;27.25;;
76667;SDS011;65585;51.166;16.922;2023-12-07T02:47:11;58.10;;;27.30;;
76667;SDS011;65585;51.166;16.922;2023-12-07T02:49:37;60.55;;;29.75;;
76667;SDS011;65585;51.166;16.922;2023-12-07T02:52:03;60.70;;;27.05;;
76667;SDS011;65585;51.166;16.922;2023-12-07T02:54:29;65.43;;;30.45;;
76667;SDS011;65585;51.166;16.922;2023-12-07T02:56:55;61.85;;;28.88;;
76667;SDS011;65585;51.166;16.922;2023-12-07T02:59:21;57.75;;;26.85;;
76667;SDS011;65585;51.166;16.922;2023-12-07T03:01:47;65.07;;;29.10;;
76667;SDS011;65585;51.166;16.922;2023-12-07T03:04:13;64.03;;;30.77;;
76667;SDS011;65585;51.166;16.922;2023-12-07T03:06:39;67.35;;;29.15;;
76667;SDS011;65585;51.166;16.922;2023-12-07T03:09:05;63.13;;;29.67;;
76667;SDS011;65585;51.166;16.922;2023-12-07T03:11:30;65.63;;;29.80;;
76667;SDS011;65585;51.166;16.922;2023-12-07T03:13:57;62.60;;;30.10;;
76667;SDS011;65585;51.166;16.922;2023-12-07T03:16:23;64.75;;;30.23;;
76667;SDS011;65585;51.166;16.922;2023-12-07T03:18:49;60.20;;;27.90;;
76667;SDS011;65585;51.166;16.922;2023-12-07T03:21:14;66.82;;;30.98;;
76667;SDS011;65585;51.166;16.922;2023-12-07T03:23:41;69.85;;;29.67;;
76667;SDS011;65585;51.166;16.922;2023-12-07T03:26:06;61.15;;;29.45;;
76667;SDS011;65585;51.166;16.922;2023-12-07T03:28:32;61.67;;;29.00;;
76667;SDS011;65585;51.166;16.922;2023-12-07T03:30:59;60.00;;;28.88;;
76667;SDS011;65585;51.166;16.922;2023-12-07T03:33:25;60.08;;;28.42;;
76667;SDS011;65585;51.166;16.922;2023-12-07T03:35:51;58.33;;;29.40;;
76667;SDS011;65585;51.166;16.922;2023-12-07T03:38:17;70.70;;;29.58;;
76667;SDS011;65585;51.166;16.922;2023-12-07T03:40:43;62.13;;;28.38;;
76667;SDS011;65585;51.166;16.922;2023-12-07T03:43:13;71.50;;;30.38;;
76667;SDS011;65585;51.166;16.922;2023-12-07T03:45:39;61.22;;;28.02;;
76667;SDS011;65585;51.166;16.922;2023-12-07T03:48:05;65.90;;;30.77;;
76667;SDS011;65585;51.166;16.922;2023-12-07T03:50:31;57.75;;;28.10;;
76667;SDS011;65585;51.166;16.922;2023-12-07T03:52:57;61.60;;;28.65;;
76667;SDS011;65585;51.166;16.922;2023-12-07T03:55:22;62.17;;;31.58;;
76667;SDS011;65585;51.166;16.922;2023-12-07T03:57:48;65.78;;;29.45;;
76667;SDS011;65585;51.166;16.922;2023-12-07T04:00:15;66.15;;;30.73;;
76667;SDS011;65585;51.166;16.922;2023-12-07T04:02:41;70.45;;;29.98;;
76667;SDS011;65585;51.166;16.922;2023-12-07T04:05:07;59.67;;;28.05;;
76667;SDS011;65585;51.166;16.922;2023-12-07T04:07:33;59.22;;;28.67;;
76667;SDS011;65585;51.166;16.922;2023-12-07T04:09:59;58.00;;;27.67;;
76667;SDS011;65585;51.166;16.922;2023-12-07T04:12:25;64.60;;;30.25;;
76667;SDS011;65585;51.166;16.922;2023-12-07T04:14:51;58.22;;;28.48;;
76667;SDS011;65585;51.166;16.922;2023-12-07T04:17:17;63.05;;;28.52;;
76667;SDS011;65585;51.166;16.922;2023-12-07T04:19:43;57.15;;;27.25;;
76667;SDS011;65585;51.166;16.922;2023-12-07T04:22:09;58.22;;;27.98;;
76667;SDS011;65585;51.166;16.922;2023-12-07T04:24:35;60.80;;;29.08;;
76667;SDS011;65585;51.166;16.922;2023-12-07T04:27:01;62.97;;;30.08;;
76667;SDS011;65585;51.166;16.922;2023-12-07T04:29:27;60.65;;;30.67;;
76667;SDS011;65585;51.166;16.922;2023-12-07T04:31:53;59.60;;;29.40;;
76667;SDS011;65585;51.166;16.922;2023-12-07T04:34:20;62.15;;;28.05;;
76667;SDS011;65585;51.166;16.922;2023-12-07T04:36:47;64.70;;;27.60;;
76667;SDS011;65585;51.166;16.922;2023-12-07T04:39:12;60.13;;;29.02;;
76667;SDS011;65585;51.166;16.922;2023-12-07T04:41:39;67.38;;;29.83;;
76667;SDS011;65585;51.166;16.922;2023-12-07T04:44:05;61.20;;;27.88;;
76667;SDS011;65585;51.166;16.922;2023-12-07T04:46:31;73.00;;;30.40;;
76667;SDS011;65585;51.166;16.922;2023-12-07T04:48:57;67.20;;;30.60;;
76667;SDS011;65585;51.166;16.922;2023-12-07T04:51:23;59.15;;;28.30;;
76667;SDS011;65585;51.166;16.922;2023-12-07T04:53:49;55.60;;;27.33;;
76667;SDS011;65585;51.166;16.922;2023-12-07T04:56:15;59.47;;;29.10;;
76667;SDS011;65585;51.166;16.922;2023-12-07T04:58:41;59.70;;;28.77;;
76667;SDS011;65585;51.166;16.922;2023-12-07T05:01:07;61.75;;;30.02;;
76667;SDS011;65585;51.166;16.922;2023-12-07T05:03:32;65.10;;;30.13;;
76667;SDS011;65585;51.166;16.922;2023-12-07T05:05:58;62.88;;;31.10;;
76667;SDS011;65585;51.166;16.922;2023-12-07T05:08:25;66.20;;;29.50;;
76667;SDS011;65585;51.166;16.922;2023-12-07T05:10:51;62.33;;;27.88;;
76667;SDS011;65585;51.166;16.922;2023-12-07T05:13:17;61.08;;;28.45;;
76667;SDS011;65585;51.166;16.922;2023-12-07T05:15:43;63.35;;;30.00;;
76667;SDS011;65585;51.166;16.922;2023-12-07T05:18:08;67.13;;;31.45;;
76667;SDS011;65585;51.166;16.922;2023-12-07T05:20:35;67.75;;;30.23;;
76667;SDS011;65585;51.166;16.922;2023-12-07T05:23:04;61.53;;;29.65;;
76667;SDS011;65585;51.166;16.922;2023-12-07T05:25:31;65.07;;;30.33;;
76667;SDS011;65585;51.166;16.922;2023-12-07T05:27:58;59.22;;;30.45;;
76667;SDS011;65585;51.166;16.922;2023-12-07T05:30:24;58.92;;;30.85;;
76667;SDS011;65585;51.166;16.922;2023-12-07T05:32:50;57.47;;;29.73;;
76667;SDS011;65585;51.166;16.922;2023-12-07T05:35:16;64.35;;;28.45;;
76667;SDS011;65585;51.166;16.922;2023-12-07T05:37:42;61.05;;;29.88;;
76667;SDS011;65585;51.166;16.922;2023-12-07T05:40:08;70.70;;;31.05;;
76667;SDS011;65585;51.166;16.922;2023-12-07T05:42:34;68.53;;;29.88;;
76667;SDS011;65585;51.166;16.922;2023-12-07T05:45:01;65.40;;;30.08;;
76667;SDS011;65585;51.166;16.922;2023-12-07T05:47:26;67.70;;;30.33;;
76667;SDS011;65585;51.166;16.922;2023-12-07T05:49:52;69.03;;;28.60;;
76667;SDS011;65585;51.166;16.922;2023-12-07T05:52:18;69.95;;;32.40;;
76667;SDS011;65585;51.166;16.922;2023-12-07T05:54:44;64.57;;;31.42;;
76667;SDS011;65585;51.166;16.922;2023-12-07T05:57:12;68.18;;;32.97;;
76667;SDS011;65585;51.166;16.922;2023-12-07T05:59:39;70.38;;;31.70;;
76667;SDS011;65585;51.166;16.922;2023-12-07T06:02:07;67.97;;;30.58;;
76667;SDS011;65585;51.166;16.922;2023-12-07T06:04:33;66.18;;;28.85;;
76667;SDS011;65585;51.166;16.922;2023-12-07T06:06:59;72.78;;;31.15;;
76667;SDS011;65585;51.166;16.922;2023-12-07T06:09:25;87.53;;;33.70;;
76667;SDS011;65585;51.166;16.922;2023-12-07T06:11:50;79.57;;;32.80;;
76667;SDS011;65585;51.166;16.922;2023-12-07T06:14:17;73.78;;;31.63;;
76667;SDS011;65585;51.166;16.922;2023-12-07T06:16:43;72.68;;;32.17;;
76667;SDS011;65585;51.166;16.922;2023-12-07T06:19:09;77.50;;;32.30;;
76667;SDS011;65585;51.166;16.922;2023-12-07T06:21:35;79.35;;;33.72;;
76667;SDS011;65585;51.166;16.922;2023-12-07T06:24:01;82.72;;;32.75;;
76667;SDS011;65585;51.166;16.922;2023-12-07T06:26:27;78.65;;;35.13;;
76667;SDS011;65585;51.166;16.922;2023-12-07T06:28:53;83.10;;;35.08;;
76667;SDS011;65585;51.166;16.922;2023-12-07T06:31:19;85.00;;;33.55;;
76667;SDS011;65585;51.166;16.922;2023-12-07T06:33:47;88.47;;;34.13;;
76667;SDS011;65585;51.166;16.922;2023-12-07T06:36:18;84.20;;;35.90;;
76667;SDS011;65585;51.166;16.922;2023-12-07T06:38:45;75.68;;;32.42;;
76667;SDS011;65585;51.166;16.922;2023-12-07T06:41:12;87.00;;;34.63;;
76667;SDS011;65585;51.166;16.922;2023-12-07T06:43:38;86.03;;;36.85;;
76667;SDS011;65585;51.166;16.922;2023-12-07T06:46:04;91.05;;;36.75;;
76667;SDS011;65585;51.166;16.922;2023-12-07T06:48:31;95.05;;;36.50;;
76667;SDS011;65585;51.166;16.922;2023-12-07T06:50:57;99.00;;;36.83;;
76667;SDS011;65585;51.166;16.922;2023-12-07T06:53:23;93.25;;;36.50;;
76667;SDS011;65585;51.166;16.922;2023-12-07T06:55:49;91.93;;;37.30;;
76667;SDS011;65585;51.166;16.922;2023-12-07T06:58:15;91.30;;;37.58;;
76667;SDS011;65585;51.166;16.922;2023-12-07T07:00:40;95.80;;;36.65;;
76667;SDS011;65585;51.166;16.922;2023-12-07T07:03:08;100.80;;;38.78;;
76667;SDS011;65585;51.166;16.922;2023-12-07T07:05:34;100.57;;;39.22;;
76667;SDS011;65585;51.166;16.922;2023-12-07T07:08:00;108.68;;;42.30;;
76667;SDS011;65585;51.166;16.922;2023-12-07T07:10:26;89.53;;;37.28;;
76667;SDS011;65585;51.166;16.922;2023-12-07T07:12:52;99.22;;;42.53;;
76667;SDS011;65585;51.166;16.922;2023-12-07T07:15:18;99.03;;;38.80;;
76667;SDS011;65585;51.166;16.922;2023-12-07T07:17:44;108.28;;;36.80;;
76667;SDS011;65585;51.166;16.922;2023-12-07T07:20:10;90.05;;;34.47;;
76667;SDS011;65585;51.166;16.922;2023-12-07T07:22:36;90.22;;;34.78;;
76667;SDS011;65585;51.166;16.922;2023-12-07T07:25:02;84.68;;;36.75;;
76667;SDS011;65585;51.166;16.922;2023-12-07T07:27:28;87.65;;;33.47;;
76667;SDS011;65585;51.166;16.922;2023-12-07T07:29:54;102.55;;;37.42;;
76667;SDS011;65585;51.166;16.922;2023-12-07T07:32:20;101.20;;;40.63;;
76667;SDS011;65585;51.166;16.922;2023-12-07T07:34:46;94.82;;;35.60;;
76667;SDS011;65585;51.166;16.922;2023-12-07T07:37:12;96.05;;;34.38;;
76667;SDS011;65585;51.166;16.922;2023-12-07T07:39:38;98.15;;;37.47;;
76667;SDS011;65585;51.166;16.922;2023-12-07T07:42:04;81.53;;;35.17;;
76667;SDS011;65585;51.166;16.922;2023-12-07T07:44:31;102.80;;;36.00;;
76667;SDS011;65585;51.166;16.922;2023-12-07T07:46:57;87.40;;;35.85;;
76667;SDS011;65585;51.166;16.922;2023-12-07T07:49:23;93.13;;;35.20;;
76667;SDS011;65585;51.166;16.922;2023-12-07T07:51:49;95.70;;;37.13;;
76667;SDS011;65585;51.166;16.922;2023-12-07T07:54:16;100.40;;;38.15;;
76667;SDS011;65585;51.166;16.922;2023-12-07T07:56:43;103.35;;;39.25;;
76667;SDS011;65585;51.166;16.922;2023-12-07T07:59:08;105.55;;;39.45;;
76667;SDS011;65585;51.166;16.922;2023-12-07T08:01:35;108.70;;;39.88;;
76667;SDS011;65585;51.166;16.922;2023-12-07T08:04:00;105.15;;;41.38;;
76667;SDS011;65585;51.166;16.922;2023-12-07T08:06:27;94.88;;;36.25;;
76667;SDS011;65585;51.166;16.922;2023-12-07T08:08:52;102.20;;;36.45;;
76667;SDS011;65585;51.166;16.922;2023-12-07T08:11:19;102.90;;;39.80;;
76667;SDS011;65585;51.166;16.922;2023-12-07T08:13:44;113.50;;;43.13;;
76667;SDS011;65585;51.166;16.922;2023-12-07T08:16:10;105.13;;;39.45;;
76667;SDS011;65585;51.166;16.922;2023-12-07T08:18:36;99.32;;;40.67;;
76667;SDS011;65585;51.166;16.922;2023-12-07T08:21:03;92.07;;;36.95;;
76667;SDS011;65585;51.166;16.922;2023-12-07T08:23:29;103.90;;;39.63;;
76667;SDS011;65585;51.166;16.922;2023-12-07T08:25:56;97.38;;;37.90;;
76667;SDS011;65585;51.166;16.922;2023-12-07T08:28:22;112.05;;;39.38;;
76667;SDS011;65585;51.166;16.922;2023-12-07T08:30:48;106.00;;;40.63;;
76667;SDS011;65585;51.166;16.922;2023-12-07T08:33:14;110.28;;;40.72;;
76667;SDS011;65585;51.166;16.922;2023-12-07T08:35:40;118.88;;;39.60;;
76667;SDS011;65585;51.166;16.922;2023-12-07T08:38:06;108.05;;;41.83;;
76667;SDS011;65585;51.166;16.922;2023-12-07T08:40:32;105.78;;;39.08;;
76667;SDS011;65585;51.166;16.922;2023-12-07T08:42:58;89.80;;;37.55;;
76667;SDS011;65585;51.166;16.922;2023-12-07T08:45:24;114.10;;;41.67;;
76667;SDS011;65585;51.166;16.922;2023-12-07T08:47:50;112.25;;;39.38;;
76667;SDS011;65585;51.166;16.922;2023-12-07T08:50:16;111.25;;;40.10;;
76667;SDS011;65585;51.166;16.922;2023-12-07T08:52:42;113.20;;;38.17;;
76667;SDS011;65585;51.166;16.922;2023-12-07T08:55:08;101.78;;;40.35;;
76667;SDS011;65585;51.166;16.922;2023-12-07T08:57:34;106.45;;;38.00;;
76667;SDS011;65585;51.166;16.922;2023-12-07T09:00:00;104.93;;;39.13;;
76667;SDS011;65585;51.166;16.922;2023-12-07T09:02:26;107.43;;;40.97;;
76667;SDS011;65585;51.166;16.922;2023-12-07T09:04:52;114.18;;;41.47;;
76667;SDS011;65585;51.166;16.922;2023-12-07T09:07:18;108.32;;;40.15;;
76667;SDS011;65585;51.166;16.922;2023-12-07T09:09:44;122.82;;;43.67;;
76667;SDS011;65585;51.166;16.922;2023-12-07T09:12:13;113.63;;;42.90;;
76667;SDS011;65585;51.166;16.922;2023-12-07T09:14:40;121.05;;;41.78;;
76667;SDS011;65585;51.166;16.922;2023-12-07T09:17:06;119.90;;;42.42;;
76667;SDS011;65585;51.166;16.922;2023-12-07T09:19:32;96.18;;;38.53;;
76667;SDS011;65585;51.166;16.922;2023-12-07T09:21:57;114.18;;;42.13;;
76667;SDS011;65585;51.166;16.922;2023-12-07T09:24:24;119.38;;;41.13;;
76667;SDS011;65585;51.166;16.922;2023-12-07T09:26:51;130.75;;;43.20;;
76667;SDS011;65585;51.166;16.922;2023-12-07T09:29:18;110.05;;;39.53;;
76667;SDS011;65585;51.166;16.922;2023-12-07T09:31:43;115.95;;;39.83;;
76667;SDS011;65585;51.166;16.922;2023-12-07T09:34:09;108.38;;;42.97;;
76667;SDS011;65585;51.166;16.922;2023-12-07T09:36:35;108.18;;;39.28;;
76667;SDS011;65585;51.166;16.922;2023-12-07T09:39:02;113.72;;;41.25;;
76667;SDS011;65585;51.166;16.922;2023-12-07T09:41:29;113.97;;;41.65;;
76667;SDS011;65585;51.166;16.922;2023-12-07T09:43:55;111.90;;;39.08;;
76667;SDS011;65585;51.166;16.922;2023-12-07T09:46:21;133.00;;;42.83;;
76667;SDS011;65585;51.166;16.922;2023-12-07T09:48:47;115.60;;;43.90;;
76667;SDS011;65585;51.166;16.922;2023-12-07T09:51:15;125.53;;;44.33;;
76667;SDS011;65585;51.166;16.922;2023-12-07T09:53:42;111.10;;;38.90;;
76667;SDS011;65585;51.166;16.922;2023-12-07T09:56:09;116.05;;;40.22;;
76667;SDS011;65585;51.166;16.922;2023-12-07T09:58:35;112.47;;;39.90;;
76667;SDS011;65585;51.166;16.922;2023-12-07T10:01:01;119.13;;;41.08;;
76667;SDS011;65585;51.166;16.922;2023-12-07T10:03:27;117.18;;;40.35;;
76667;SDS011;65585;51.166;16.922;2023-12-07T10:05:57;119.22;;;42.08;;
76667;SDS011;65585;51.166;16.922;2023-12-07T10:08:29;120.55;;;41.05;;
76667;SDS011;65585;51.166;16.922;2023-12-07T10:11:02;113.57;;;42.42;;
76667;SDS011;65585;51.166;16.922;2023-12-07T10:13:33;110.95;;;40.55;;
76667;SDS011;65585;51.166;16.922;2023-12-07T10:16:10;109.05;;;42.58;;
76667;SDS011;65585;51.166;16.922;2023-12-07T10:18:41;130.73;;;42.30;;
76667;SDS011;65585;51.166;16.922;2023-12-07T10:21:07;125.32;;;42.45;;
76667;SDS011;65585;51.166;16.922;2023-12-07T10:23:38;115.30;;;45.10;;
76667;SDS011;65585;51.166;16.922;2023-12-07T10:26:05;116.68;;;41.40;;
76667;SDS011;65585;51.166;16.922;2023-12-07T10:28:33;124.68;;;45.40;;
76667;SDS011;65585;51.166;16.922;2023-12-07T10:31:00;115.22;;;39.65;;
76667;SDS011;65585;51.166;16.922;2023-12-07T10:33:26;117.38;;;39.35;;
76667;SDS011;65585;51.166;16.922;2023-12-07T10:35:52;104.25;;;36.88;;
76667;SDS011;65585;51.166;16.922;2023-12-07T10:38:18;116.65;;;41.55;;
76667;SDS011;65585;51.166;16.922;2023-12-07T10:40:48;109.13;;;38.38;;
76667;SDS011;65585;51.166;16.922;2023-12-07T10:43:17;105.72;;;39.95;;
76667;SDS011;65585;51.166;16.922;2023-12-07T10:45:44;111.28;;;41.72;;
76667;SDS011;65585;51.166;16.922;2023-12-07T10:48:10;119.70;;;39.92;;
76667;SDS011;65585;51.166;16.922;2023-12-07T10:50:37;104.07;;;38.70;;
76667;SDS011;65585;51.166;16.922;2023-12-07T10:53:08;106.28;;;40.15;;
76667;SDS011;65585;51.166;16.922;2023-12-07T10:58:07;88.85;;;33.95;;
76667;SDS011;65585;51.166;16.922;2023-12-07T11:00:33;105.60;;;37.65;;
76667;SDS011;65585;51.166;16.922;2023-12-07T11:02:59;107.78;;;34.60;;
76667;SDS011;65585;51.166;16.922;2023-12-07T11:05:25;97.78;;;35.08;;
76667;SDS011;65585;51.166;16.922;2023-12-07T11:07:55;95.75;;;39.33;;
76667;SDS011;65585;51.166;16.922;2023-12-07T11:10:30;114.07;;;38.78;;
76667;SDS011;65585;51.166;16.922;2023-12-07T11:13:00;106.38;;;39.50;;
76667;SDS011;65585;51.166;16.922;2023-12-07T11:15:34;103.60;;;39.33;;
76667;SDS011;65585;51.166;16.922;2023-12-07T11:18:01;117.88;;;41.78;;
76667;SDS011;65585;51.166;16.922;2023-12-07T11:20:44;113.00;;;38.83;;
76667;SDS011;65585;51.166;16.922;2023-12-07T11:23:15;108.40;;;36.30;;
76667;SDS011;65585;51.166;16.922;2023-12-07T11:25:44;105.65;;;37.55;;
76667;SDS011;65585;51.166;16.922;2023-12-07T11:28:11;87.80;;;34.80;;
76667;SDS011;65585;51.166;16.922;2023-12-07T11:30:37;108.30;;;38.63;;
76667;SDS011;65585;51.166;16.922;2023-12-07T11:33:06;99.35;;;37.03;;
76667;SDS011;65585;51.166;16.922;2023-12-07T11:35:32;89.05;;;33.53;;
76667;SDS011;65585;51.166;16.922;2023-12-07T11:38:02;87.28;;;33.47;;
76667;SDS011;65585;51.166;16.922;2023-12-07T11:40:37;73.65;;;29.05;;
76667;SDS011;65585;51.166;16.922;2023-12-07T11:43:04;68.03;;;28.38;;
76667;SDS011;65585;51.166;16.922;2023-12-07T11:45:37;69.05;;;26.58;;
76667;SDS011;65585;51.166;16.922;2023-12-07T11:48:13;69.75;;;26.63;;
76667;SDS011;65585;51.166;16.922;2023-12-07T11:53:25;66.18;;;27.77;;
76667;SDS011;65585;51.166;16.922;2023-12-07T11:55:52;59.60;;;26.52;;
76667;SDS011;65585;51.166;16.922;2023-12-07T11:58:18;63.67;;;26.77;;
76667;SDS011;65585;51.166;16.922;2023-12-07T12:00:45;66.50;;;24.90;;
76667;SDS011;65585;51.166;16.922;2023-12-07T12:03:12;65.72;;;27.40;;
76667;SDS011;65585;51.166;16.922;2023-12-07T12:05:39;64.38;;;25.00;;
76667;SDS011;65585;51.166;16.922;2023-12-07T12:08:06;57.53;;;24.27;;
76667;SDS011;65585;51.166;16.922;2023-12-07T12:10:32;58.50;;;22.95;;
76667;SDS011;65585;51.166;16.922;2023-12-07T12:13:04;53.22;;;22.42;;
76667;SDS011;65585;51.166;16.922;2023-12-07T12:15:30;59.65;;;24.45;;
76667;SDS011;65585;51.166;16.922;2023-12-07T12:17:56;44.00;;;18.88;;
76667;SDS011;65585;51.166;16.922;2023-12-07T12:20:26;47.38;;;20.13;;
76667;SDS011;65585;51.166;16.922;2023-12-07T12:22:53;53.65;;;22.10;;
76667;SDS011;65585;51.166;16.922;2023-12-07T12:25:25;48.53;;;22.25;;
76667;SDS011;65585;51.166;16.922;2023-12-07T12:28:01;45.92;;;20.35;;
76667;SDS011;65585;51.166;16.922;2023-12-07T12:30:28;47.67;;;20.02;;
76667;SDS011;65585;51.166;16.922;2023-12-07T12:32:55;50.17;;;21.92;;
76667;SDS011;65585;51.166;16.922;2023-12-07T12:35:21;55.53;;;23.08;;
76667;SDS011;65585;51.166;16.922;2023-12-07T12:37:49;51.80;;;22.50;;
76667;SDS011;65585;51.166;16.922;2023-12-07T12:40:19;57.30;;;23.65;;
76667;SDS011;65585;51.166;16.922;2023-12-07T12:42:47;58.55;;;24.48;;
76667;SDS011;65585;51.166;16.922;2023-12-07T12:45:17;49.42;;;21.75;;
76667;SDS011;65585;51.166;16.922;2023-12-07T12:47:47;54.35;;;24.63;;
76667;SDS011;65585;51.166;16.922;2023-12-07T12:50:59;53.53;;;24.55;;
76667;SDS011;65585;51.166;16.922;2023-12-07T12:53:04;50.33;;;23.70;;
76667;SDS011;65585;51.166;16.922;2023-12-07T12:55:35;48.00;;;22.80;;
76667;SDS011;65585;51.166;16.922;2023-12-07T12:58:03;52.42;;;25.70;;
76667;SDS011;65585;51.166;16.922;2023-12-07T13:00:31;62.78;;;25.75;;
76667;SDS011;65585;51.166;16.922;2023-12-07T13:02:59;55.28;;;24.42;;
76667;SDS011;65585;51.166;16.922;2023-12-07T13:05:26;51.28;;;22.73;;
76667;SDS011;65585;51.166;16.922;2023-12-07T13:07:52;53.22;;;23.95;;
76667;SDS011;65585;51.166;16.922;2023-12-07T13:10:18;55.90;;;22.08;;
76667;SDS011;65585;51.166;16.922;2023-12-07T13:12:44;51.53;;;23.42;;
76667;SDS011;65585;51.166;16.922;2023-12-07T13:15:11;54.08;;;20.90;;
76667;SDS011;65585;51.166;16.922;2023-12-07T13:17:41;52.10;;;22.20;;
76667;SDS011;65585;51.166;16.922;2023-12-07T13:20:07;51.33;;;24.00;;
76667;SDS011;65585;51.166;16.922;2023-12-07T13:25:02;50.33;;;21.73;;
76667;SDS011;65585;51.166;16.922;2023-12-07T13:27:28;50.22;;;23.73;;
76667;SDS011;65585;51.166;16.922;2023-12-07T13:29:54;56.50;;;23.38;;
76667;SDS011;65585;51.166;16.922;2023-12-07T13:32:20;59.10;;;26.50;;
76667;SDS011;65585;51.166;16.922;2023-12-07T13:34:46;60.10;;;25.38;;
76667;SDS011;65585;51.166;16.922;2023-12-07T13:37:12;60.65;;;24.15;;
76667;SDS011;65585;51.166;16.922;2023-12-07T13:39:38;59.67;;;25.60;;
76667;SDS011;65585;51.166;16.922;2023-12-07T13:42:04;58.95;;;26.65;;
76667;SDS011;65585;51.166;16.922;2023-12-07T13:44:30;59.55;;;26.60;;
76667;SDS011;65585;51.166;16.922;2023-12-07T13:46:58;71.13;;;26.92;;
76667;SDS011;65585;51.166;16.922;2023-12-07T13:49:23;64.97;;;26.50;;
76667;SDS011;65585;51.166;16.922;2023-12-07T13:51:50;58.30;;;28.38;;
76667;SDS011;65585;51.166;16.922;2023-12-07T13:54:15;72.22;;;29.58;;
76667;SDS011;65585;51.166;16.922;2023-12-07T13:56:42;63.42;;;27.50;;
76667;SDS011;65585;51.166;16.922;2023-12-07T13:59:08;65.07;;;27.85;;
76667;SDS011;65585;51.166;16.922;2023-12-07T14:01:36;58.25;;;25.45;;
76667;SDS011;65585;51.166;16.922;2023-12-07T14:04:02;65.97;;;25.75;;
76667;SDS011;65585;51.166;16.922;2023-12-07T14:06:28;58.38;;;26.52;;
76667;SDS011;65585;51.166;16.922;2023-12-07T14:08:54;63.15;;;27.13;;
76667;SDS011;65585;51.166;16.922;2023-12-07T14:11:20;58.90;;;26.92;;
76667;SDS011;65585;51.166;16.922;2023-12-07T14:13:46;64.45;;;26.38;;
76667;SDS011;65585;51.166;16.922;2023-12-07T14:16:14;48.65;;;24.42;;
76667;SDS011;65585;51.166;16.922;2023-12-07T14:18:40;58.70;;;26.25;;
76667;SDS011;65585;51.166;16.922;2023-12-07T14:21:06;52.17;;;26.58;;
76667;SDS011;65585;51.166;16.922;2023-12-07T14:23:32;53.28;;;24.08;;
76667;SDS011;65585;51.166;16.922;2023-12-07T14:25:58;54.30;;;24.65;;
76667;SDS011;65585;51.166;16.922;2023-12-07T14:28:24;54.20;;;26.75;;
76667;SDS011;65585;51.166;16.922;2023-12-07T14:30:51;50.33;;;24.05;;
76667;SDS011;65585;51.166;16.922;2023-12-07T14:33:24;47.97;;;23.55;;
76667;SDS011;65585;51.166;16.922;2023-12-07T14:35:50;49.67;;;24.63;;
76667;SDS011;65585;51.166;16.922;2023-12-07T14:38:16;48.55;;;22.52;;
76667;SDS011;65585;51.166;16.922;2023-12-07T14:40:43;53.05;;;22.63;;
76667;SDS011;65585;51.166;16.922;2023-12-07T14:43:09;54.53;;;22.88;;
76667;SDS011;65585;51.166;16.922;2023-12-07T14:45:35;43.60;;;22.17;;
76667;SDS011;65585;51.166;16.922;2023-12-07T14:48:01;59.80;;;23.95;;
76667;SDS011;65585;51.166;16.922;2023-12-07T14:50:27;50.53;;;24.38;;
76667;SDS011;65585;51.166;16.922;2023-12-07T14:52:52;57.00;;;25.23;;
76667;SDS011;65585;51.166;16.922;2023-12-07T14:55:19;59.15;;;25.80;;
76667;SDS011;65585;51.166;16.922;2023-12-07T14:57:45;55.72;;;24.70;;
76667;SDS011;65585;51.166;16.922;2023-12-07T15:00:11;47.40;;;22.33;;
76667;SDS011;65585;51.166;16.922;2023-12-07T15:02:37;59.40;;;27.10;;
76667;SDS011;65585;51.166;16.922;2023-12-07T15:05:03;58.95;;;25.60;;
76667;SDS011;65585;51.166;16.922;2023-12-07T15:07:33;55.60;;;24.88;;
76667;SDS011;65585;51.166;16.922;2023-12-07T15:09:59;57.70;;;27.75;;
76667;SDS011;65585;51.166;16.922;2023-12-07T15:12:25;60.17;;;28.90;;
76667;SDS011;65585;51.166;16.922;2023-12-07T15:14:52;60.20;;;25.98;;
76667;SDS011;65585;51.166;16.922;2023-12-07T15:17:18;59.45;;;28.23;;
76667;SDS011;65585;51.166;16.922;2023-12-07T15:19:44;58.25;;;26.02;;
76667;SDS011;65585;51.166;16.922;2023-12-07T15:22:10;62.92;;;28.50;;
76667;SDS011;65585;51.166;16.922;2023-12-07T15:24:36;56.90;;;27.13;;
76667;SDS011;65585;51.166;16.922;2023-12-07T15:27:03;60.22;;;25.40;;
76667;SDS011;65585;51.166;16.922;2023-12-07T15:29:29;51.28;;;25.17;;
76667;SDS011;65585;51.166;16.922;2023-12-07T15:31:55;49.47;;;23.30;;
76667;SDS011;65585;51.166;16.922;2023-12-07T15:34:21;55.72;;;24.08;;
76667;SDS011;65585;51.166;16.922;2023-12-07T15:36:47;43.65;;;22.63;;
76667;SDS011;65585;51.166;16.922;2023-12-07T15:39:14;53.85;;;22.75;;
76667;SDS011;65585;51.166;16.922;2023-12-07T15:41:40;50.05;;;22.42;;
76667;SDS011;65585;51.166;16.922;2023-12-07T15:44:06;55.50;;;24.05;;
76667;SDS011;65585;51.166;16.922;2023-12-07T15:46:32;51.75;;;24.45;;
76667;SDS011;65585;51.166;16.922;2023-12-07T15:48:58;51.95;;;23.23;;
76667;SDS011;65585;51.166;16.922;2023-12-07T15:51:25;55.03;;;23.20;;
76667;SDS011;65585;51.166;16.922;2023-12-07T15:53:51;60.25;;;24.27;;
76667;SDS011;65585;51.166;16.922;2023-12-07T15:56:16;52.22;;;22.45;;
76667;SDS011;65585;51.166;16.922;2023-12-07T15:58:42;45.58;;;21.58;;
76667;SDS011;65585;51.166;16.922;2023-12-07T16:01:08;45.20;;;22.17;;
76667;SDS011;65585;51.166;16.922;2023-12-07T16:03:36;49.47;;;24.00;;
76667;SDS011;65585;51.166;16.922;2023-12-07T16:06:02;50.15;;;21.27;;
76667;SDS011;65585;51.166;16.922;2023-12-07T16:08:29;58.00;;;23.90;;
76667;SDS011;65585;51.166;16.922;2023-12-07T16:10:55;52.63;;;23.25;;
76667;SDS011;65585;51.166;16.922;2023-12-07T16:13:21;52.75;;;20.35;;
76667;SDS011;65585;51.166;16.922;2023-12-07T16:15:49;48.58;;;21.17;;
76667;SDS011;65585;51.166;16.922;2023-12-07T16:18:15;52.60;;;22.25;;
76667;SDS011;65585;51.166;16.922;2023-12-07T16:20:41;43.60;;;21.67;;
76667;SDS011;65585;51.166;16.922;2023-12-07T16:23:07;54.00;;;23.95;;
76667;SDS011;65585;51.166;16.922;2023-12-07T16:25:33;51.63;;;25.75;;
76667;SDS011;65585;51.166;16.922;2023-12-07T16:27:59;60.35;;;25.92;;